createdAt,value
2023-01-02T00:00:44.330Z,13.82
2023-01-02T00:03:12.833Z,14.20
2023-01-02T00:05:49.969Z,14.55
2023-01-02T00:08:29.810Z,14.75
2023-01-02T00:11:39.177Z,14.75
2023-01-02T00:14:06.546Z,14.20
2023-01-02T00:16:36.342Z,13.88
2023-01-02T00:19:03.663Z,13.98
2023-01-02T00:21:34.267Z,14.05
2023-01-02T00:24:01.772Z,13.63
2023-01-02T00:26:30.949Z,13.30
2023-01-02T00:29:04.150Z,12.30
2023-01-02T00:31:31.629Z,13.85
2023-01-02T00:36:40.446Z,13.57
2023-01-02T00:39:07.393Z,14.32
2023-01-02T00:41:37.240Z,13.68
2023-01-02T00:44:04.789Z,14.38
2023-01-02T00:46:31.765Z,13.80
2023-01-02T00:49:07.899Z,13.73
2023-01-02T00:51:34.816Z,14.93
2023-01-02T00:54:02.010Z,14.02
2023-01-02T00:59:40.805Z,13.77
2023-01-02T01:02:13.701Z,12.68
2023-01-02T01:05:27.142Z,13.57
2023-01-02T01:07:56.143Z,15.30
2023-01-02T01:10:25.014Z,13.95
2023-01-02T01:13:22.099Z,14.48
2023-01-02T01:15:49.438Z,14.05
2023-01-02T01:18:19.486Z,16.33
2023-01-02T01:20:56.113Z,14.50
2023-01-02T01:23:54.657Z,12.77
2023-01-02T01:29:36.088Z,11.82
2023-01-02T01:32:21.723Z,12.27
2023-01-02T01:34:51.432Z,12.13
2023-01-02T01:37:19.870Z,12.45
2023-01-02T01:39:46.950Z,13.00
2023-01-02T01:42:14.816Z,14.20
2023-01-02T01:45:00.618Z,14.02
2023-01-02T01:47:44.134Z,14.07
2023-01-02T01:50:24.444Z,14.45
2023-01-02T01:52:57.804Z,14.07
2023-01-02T01:55:31.238Z,14.48
2023-01-02T01:58:02.581Z,15.65
2023-01-02T02:00:30.367Z,15.18
2023-01-02T02:03:18.117Z,14.38
2023-01-02T02:05:46.308Z,14.63
2023-01-02T02:08:19.081Z,15.82
2023-01-02T02:10:47.428Z,16.20
2023-01-02T02:13:14.984Z,15.65
2023-01-02T02:16:01.348Z,15.80
2023-01-02T02:19:03.103Z,14.70
2023-01-02T02:22:00.942Z,14.27
2023-01-02T02:24:52.330Z,15.88
2023-01-02T02:27:25.327Z,14.45
2023-01-02T02:30:21.663Z,15.02
2023-01-02T02:33:06.752Z,14.02
2023-01-02T02:38:26.328Z,12.95
2023-01-02T02:41:19.699Z,14.35
2023-01-02T02:44:20.905Z,12.80
2023-01-02T02:47:13.485Z,14.10
2023-01-02T02:49:49.518Z,13.57
2023-01-02T02:52:52.728Z,13.23
2023-01-02T02:55:41.249Z,12.88
2023-01-02T02:58:08.942Z,13.95
2023-01-02T03:00:36.596Z,13.52
2023-01-02T03:03:15.332Z,14.00
2023-01-02T03:05:48.162Z,13.50
2023-01-02T03:08:45.025Z,12.65
2023-01-02T03:11:13.212Z,12.57
2023-01-02T03:13:52.471Z,12.57
2023-01-02T03:16:37.026Z,12.90
2023-01-02T03:19:14.795Z,13.13
2023-01-02T03:22:03.582Z,12.80
2023-01-02T03:25:15.168Z,12.75
2023-01-02T03:34:09.527Z,11.65
2023-01-02T03:36:45.168Z,12.10
2023-01-02T03:39:24.329Z,13.77
2023-01-02T03:41:58.107Z,14.20
2023-01-02T03:44:31.380Z,12.33
2023-01-02T03:47:23.474Z,12.30
2023-01-02T03:50:12.666Z,12.73
2023-01-02T03:52:58.703Z,12.90
2023-01-02T03:55:34.766Z,12.38
2023-01-02T03:58:07.920Z,13.25
2023-01-02T04:01:14.273Z,12.48
2023-01-02T04:03:54.049Z,11.85
2023-01-02T04:09:18.815Z,11.30
2023-01-02T04:11:51.506Z,12.20
2023-01-02T04:14:24.939Z,10.70
2023-01-02T04:16:55.143Z,11.82
2023-01-02T04:19:26.965Z,11.38
2023-01-02T04:21:58.231Z,10.70
2023-01-02T04:24:35.204Z,11.43
2023-01-02T04:27:11.034Z,10.80
2023-01-02T04:29:38.272Z,10.20
2023-01-02T04:32:17.637Z,10.85
2023-01-02T04:34:46.517Z,10.13
2023-01-02T04:37:40.922Z,10.25
2023-01-02T04:40:27.549Z,10.00
2023-01-02T04:42:55.361Z,9.95
2023-01-02T04:46:11.995Z,10.23
2023-01-02T04:49:54.825Z,10.23
2023-01-02T04:52:21.835Z,9.88
2023-01-02T04:58:16.409Z,9.63
2023-01-02T05:00:43.754Z,10.10
2023-01-02T05:03:11.723Z,10.23
2023-01-02T05:05:38.677Z,10.10
2023-01-02T05:08:09.326Z,10.55
2023-01-02T05:10:39.228Z,10.45
2023-01-02T05:13:06.094Z,11.40
2023-01-02T05:15:33.071Z,9.70
2023-01-02T05:18:00.111Z,11.38
2023-01-02T05:20:27.004Z,9.80
2023-01-02T05:26:26.693Z,11.10
2023-01-02T05:28:54.562Z,10.57
2023-01-02T05:31:40.314Z,11.02
2023-01-02T05:34:14.812Z,11.07
2023-01-02T05:36:42.267Z,12.07
2023-01-02T05:39:33.990Z,11.07
2023-01-02T05:42:00.979Z,11.73
2023-01-02T05:44:32.266Z,10.90
2023-01-02T05:46:59.183Z,10.93
2023-01-02T05:49:26.137Z,11.98
2023-01-02T05:52:11.732Z,11.43
2023-01-02T05:54:38.703Z,12.30
2023-01-02T05:57:05.547Z,12.20
2023-01-02T05:59:35.912Z,12.32
2023-01-02T06:02:03.609Z,11.57
2023-01-02T06:04:31.031Z,10.45
2023-01-02T06:06:58.126Z,11.80
2023-01-02T06:09:43.772Z,12.98
2023-01-02T06:12:10.739Z,11.10
2023-01-02T06:14:44.909Z,10.23
2023-01-02T06:17:37.006Z,11.23
2023-01-02T06:20:04.251Z,11.25
2023-01-02T06:22:31.151Z,10.88
2023-01-02T06:24:58.678Z,10.90
2023-01-02T06:27:31.757Z,9.68
2023-01-02T06:30:12.974Z,9.70
2023-01-02T06:33:07.084Z,8.95
2023-01-02T06:35:34.080Z,8.65
2023-01-02T06:39:03.815Z,8.20
2023-01-02T06:45:10.169Z,7.57
2023-01-02T06:47:40.228Z,7.78
2023-01-02T06:50:11.238Z,7.40
2023-01-02T06:52:41.097Z,7.53
2023-01-02T06:55:08.855Z,7.55
2023-01-02T06:57:35.876Z,8.25
2023-01-02T07:00:21.285Z,7.68
2023-01-02T07:03:16.885Z,7.55
2023-01-02T07:08:33.889Z,8.10
2023-01-02T07:11:24.863Z,9.25
2023-01-02T07:14:08.493Z,8.75
2023-01-02T07:16:39.410Z,8.18
2023-01-02T07:19:09.625Z,8.93
2023-01-02T07:21:36.560Z,9.25
2023-01-02T07:24:04.481Z,9.38
2023-01-02T07:26:31.437Z,10.50
2023-01-02T07:28:59.063Z,9.20
2023-01-02T07:31:29.353Z,9.27
2023-01-02T07:33:56.364Z,9.68
2023-01-02T07:36:24.375Z,9.75
2023-01-02T07:38:53.179Z,9.02
2023-01-02T07:41:42.160Z,9.10
2023-01-02T07:44:14.335Z,11.85
2023-01-02T07:46:41.434Z,9.98
2023-01-02T07:49:08.403Z,9.45
2023-01-02T07:51:35.365Z,9.70
2023-01-02T07:54:02.400Z,10.65
2023-01-02T07:56:29.403Z,10.55
2023-01-02T07:59:34.001Z,10.55
2023-01-02T08:02:19.949Z,8.10
2023-01-02T08:04:47.018Z,6.97
2023-01-02T08:07:13.953Z,8.38
2023-01-02T08:09:40.944Z,8.18
2023-01-02T08:12:07.841Z,8.75
2023-01-02T08:14:34.787Z,9.52
2023-01-02T08:17:02.554Z,9.48
2023-01-02T08:19:29.641Z,8.45
2023-01-02T08:24:41.200Z,8.38
2023-01-02T08:27:08.148Z,8.85
2023-01-02T08:29:35.045Z,8.50
2023-01-02T08:32:02.014Z,8.05
2023-01-02T08:34:28.952Z,8.25
2023-01-02T08:36:55.838Z,7.65
2023-01-02T08:39:22.732Z,8.23
2023-01-02T08:41:49.657Z,8.75
2023-01-02T08:44:17.319Z,8.07
2023-01-02T08:46:44.410Z,8.20
2023-01-02T08:49:12.348Z,7.25
2023-01-02T08:51:39.497Z,7.05
2023-01-02T08:54:06.617Z,7.40
2023-01-02T08:56:34.052Z,6.88
2023-01-02T08:59:12.067Z,6.55
2023-01-02T09:01:39.788Z,8.82
2023-01-02T09:04:12.074Z,8.23
2023-01-02T09:06:40.068Z,7.00
2023-01-02T09:09:11.373Z,7.40
2023-01-02T09:11:45.279Z,6.95
2023-01-02T09:14:12.322Z,8.55
2023-01-02T09:16:39.410Z,7.47
2023-01-02T09:19:06.481Z,6.55
2023-01-02T09:21:33.431Z,6.03
2023-01-02T09:24:00.698Z,7.70
2023-01-02T09:26:27.857Z,6.38
2023-01-02T09:28:54.865Z,7.43
2023-01-02T09:31:22.285Z,6.18
2023-01-02T09:33:49.525Z,6.82
2023-01-02T09:36:19.461Z,6.97
2023-01-02T09:39:00.805Z,5.82
2023-01-02T09:41:37.363Z,6.03
2023-01-02T09:44:28.732Z,5.85
2023-01-02T09:47:11.315Z,5.72
2023-01-02T09:50:10.303Z,7.50
2023-01-02T09:52:41.737Z,7.18
2023-01-02T09:55:27.415Z,6.82
2023-01-02T09:58:14.528Z,7.60
2023-01-02T10:01:00.583Z,6.25
2023-01-02T10:03:49.245Z,6.85
2023-01-02T10:06:20.333Z,6.80
2023-01-02T10:09:08.535Z,7.25
2023-01-02T10:11:56.812Z,8.50
2023-01-02T10:14:35.005Z,8.15
2023-01-02T10:17:08.497Z,7.47
2023-01-02T10:19:50.275Z,7.82
2023-01-02T10:22:27.672Z,8.27
2023-01-02T10:25:03.558Z,7.97
2023-01-02T10:27:38.237Z,8.13
2023-01-02T10:32:59.952Z,8.57
2023-01-02T10:35:34.607Z,8.13
2023-01-02T10:38:02.340Z,8.77
2023-01-02T10:40:31.882Z,7.80
2023-01-02T10:43:00.944Z,7.30
2023-01-02T10:45:28.835Z,8.77
2023-01-02T10:47:55.707Z,8.73
2023-01-02T10:53:37.183Z,10.07
2023-01-02T10:56:18.839Z,10.02
2023-01-02T10:58:50.715Z,9.80
2023-01-02T11:01:22.393Z,9.82
2023-01-02T11:04:10.393Z,9.35
2023-01-02T11:07:10.767Z,9.52
2023-01-02T11:09:38.420Z,10.75
2023-01-02T11:12:14.213Z,9.68
2023-01-02T11:14:41.682Z,9.90
2023-01-02T11:17:20.985Z,10.05
2023-01-02T11:19:51.486Z,9.85
2023-01-02T11:22:21.612Z,10.05
2023-01-02T11:25:02.488Z,8.35
2023-01-02T11:30:47.338Z,9.73
2023-01-02T11:33:14.301Z,10.85
2023-01-02T11:36:05.744Z,10.85
2023-01-02T11:38:59.274Z,9.45
2023-01-02T11:41:46.197Z,9.10
2023-01-02T11:44:39.453Z,9.70
2023-01-02T11:47:11.949Z,8.95
2023-01-02T11:49:46.046Z,10.45
2023-01-02T11:52:27.855Z,11.23
2023-01-02T11:54:59.586Z,9.80
2023-01-02T11:57:38.996Z,9.52
2023-01-02T12:00:13.182Z,10.35
2023-01-02T12:02:53.183Z,9.35
2023-01-02T12:05:33.127Z,8.60
2023-01-02T12:08:07.024Z,8.63
2023-01-02T12:11:04.637Z,11.20
2023-01-02T12:13:49.724Z,9.70
2023-01-02T12:16:34.538Z,9.43
2023-01-02T12:19:39.975Z,9.60
2023-01-02T12:22:09.551Z,8.93
2023-01-02T12:24:45.422Z,9.85
2023-01-02T12:27:36.919Z,9.55
2023-01-02T12:30:38.670Z,8.68
2023-01-02T12:33:22.195Z,8.77
2023-01-02T12:36:15.676Z,9.38
2023-01-02T12:39:16.957Z,9.60
2023-01-02T12:42:04.500Z,9.32
2023-01-02T12:44:40.871Z,8.35
2023-01-02T12:47:25.929Z,9.02
2023-01-02T12:50:08.509Z,8.70
2023-01-02T12:52:51.719Z,10.35
2023-01-02T12:55:56.048Z,8.63
2023-01-02T12:59:00.101Z,9.45
2023-01-02T13:01:59.425Z,9.43
2023-01-02T13:04:55.897Z,9.40
2023-01-02T13:07:37.227Z,8.93
2023-01-02T13:10:06.125Z,8.57
2023-01-02T13:12:35.877Z,9.35
2023-01-02T13:15:19.023Z,8.95
2023-01-02T13:17:51.842Z,9.27
2023-01-02T13:20:40.261Z,8.60
2023-01-02T13:23:37.104Z,9.20
2023-01-02T13:26:26.018Z,8.07
2023-01-02T13:28:55.048Z,8.68
2023-01-02T13:34:22.123Z,8.90
2023-01-02T13:36:50.658Z,9.43
2023-01-02T13:39:26.086Z,8.15
2023-01-02T13:42:20.587Z,8.07
2023-01-02T13:44:52.671Z,7.77
2023-01-02T13:47:39.401Z,8.23
2023-01-02T13:50:23.176Z,7.90
2023-01-02T13:53:01.872Z,7.75
2023-01-02T13:55:35.313Z,8.82
2023-01-02T13:58:20.432Z,8.02
2023-01-02T14:00:54.232Z,8.18
2023-01-02T14:06:30.890Z,9.27
2023-01-02T14:09:06.723Z,7.57
2023-01-02T14:12:03.098Z,8.55
2023-01-02T14:14:43.289Z,8.73
2023-01-02T14:17:47.883Z,9.07
2023-01-02T14:23:30.831Z,7.55
2023-01-02T14:25:57.833Z,7.53
2023-01-02T14:28:37.070Z,7.25
2023-01-02T14:31:34.234Z,7.18
2023-01-02T14:34:01.575Z,6.88
2023-01-02T14:36:50.231Z,7.10
2023-01-02T14:39:31.086Z,5.93
2023-01-02T14:42:50.150Z,7.13
2023-01-02T14:45:20.635Z,6.75
2023-01-02T14:47:52.655Z,6.97
2023-01-02T14:50:28.765Z,7.32
2023-01-02T14:53:03.271Z,7.00
2023-01-02T14:55:41.627Z,7.70
2023-01-02T14:58:47.090Z,6.20
2023-01-02T15:01:42.239Z,7.55
2023-01-02T15:04:23.502Z,8.40
2023-01-02T15:07:28.413Z,9.38
2023-01-02T15:10:06.458Z,9.02
2023-01-02T15:13:01.679Z,8.18
2023-01-02T15:18:16.441Z,9.65
2023-01-02T15:20:49.183Z,9.00
2023-01-02T15:23:27.333Z,8.52
2023-01-02T15:26:31.493Z,7.68
2023-01-02T15:28:42.763Z,7.90
2023-01-02T15:31:15.737Z,7.85
2023-01-02T15:33:43.481Z,9.15
2023-01-02T15:36:32.855Z,7.93
2023-01-02T15:39:21.546Z,8.38
2023-01-02T15:44:59.629Z,9.43
2023-01-02T15:47:28.479Z,8.35
2023-01-02T15:49:57.701Z,10.82
2023-01-02T15:52:45.015Z,9.32
2023-01-02T15:55:18.013Z,8.73
2023-01-02T15:57:55.348Z,10.30
2023-01-02T16:00:34.011Z,11.10
2023-01-02T16:03:01.297Z,10.63
2023-01-02T16:05:47.810Z,10.18
2023-01-02T16:08:37.867Z,12.18
2023-01-02T16:11:05.335Z,11.43
2023-01-02T16:14:02.011Z,11.05
2023-01-02T16:16:43.335Z,11.95
2023-01-02T16:19:19.732Z,12.40
2023-01-02T16:21:47.576Z,12.73
2023-01-02T16:24:19.708Z,12.68
2023-01-02T16:26:47.042Z,12.70
2023-01-02T16:29:16.984Z,11.43
2023-01-02T16:31:53.609Z,10.55
2023-01-02T16:34:33.405Z,11.68
2023-01-02T16:37:34.383Z,10.60
2023-01-02T16:40:59.902Z,11.95
2023-01-02T16:43:13.906Z,10.45
2023-01-02T16:45:41.409Z,11.60
2023-01-02T16:48:15.410Z,10.98
2023-01-02T16:50:45.187Z,11.07
2023-01-02T16:53:33.607Z,11.93
2023-01-02T16:56:01.063Z,11.48
2023-01-02T16:58:27.994Z,12.25
2023-01-02T17:00:56.240Z,11.00
2023-01-02T17:03:26.311Z,10.45
2023-01-02T17:06:01.876Z,9.65
2023-01-02T17:08:33.133Z,10.43
2023-01-02T17:11:01.168Z,11.38
2023-01-02T17:13:47.308Z,11.10
2023-01-02T17:16:15.357Z,12.00
2023-01-02T17:18:42.405Z,12.27
2023-01-02T17:21:09.820Z,12.52
2023-01-02T17:26:40.063Z,11.77
2023-01-02T17:29:07.006Z,11.45
2023-01-02T17:31:33.985Z,12.07
2023-01-02T17:34:03.185Z,11.95
2023-01-02T17:36:31.188Z,14.60
2023-01-02T17:38:58.315Z,12.70
2023-01-02T17:41:25.773Z,11.80
2023-01-02T17:44:01.775Z,12.10
2023-01-02T17:47:04.242Z,11.93
2023-01-02T17:49:17.656Z,12.55
2023-01-02T17:51:44.568Z,11.32
2023-01-02T17:54:30.274Z,13.68
2023-01-02T17:56:57.686Z,13.55
2023-01-02T17:59:25.085Z,13.10
2023-01-02T18:01:52.562Z,14.13
2023-01-02T18:04:19.919Z,14.75
2023-01-02T18:06:46.995Z,12.93
2023-01-02T18:09:13.869Z,13.63
2023-01-02T18:11:41.005Z,13.57
2023-01-02T18:14:23.277Z,14.52
2023-01-02T18:16:51.700Z,13.18
2023-01-02T18:19:22.441Z,12.60
2023-01-02T18:21:49.622Z,14.63
2023-01-02T18:24:25.122Z,12.70
2023-01-02T18:27:02.220Z,12.85
2023-01-02T18:29:29.194Z,12.65
2023-01-02T18:31:56.257Z,14.27
2023-01-02T18:34:47.759Z,15.57
2023-01-02T18:37:26.439Z,15.20
2023-01-02T18:39:55.043Z,12.10
2023-01-02T18:42:27.700Z,13.98
2023-01-02T18:44:57.929Z,13.57
2023-01-02T18:47:34.629Z,15.18
2023-01-02T18:50:24.325Z,14.02
2023-01-02T18:52:51.936Z,15.07
2023-01-02T18:55:31.302Z,13.93
2023-01-02T18:58:07.887Z,15.10
2023-01-02T19:00:53.870Z,16.63
2023-01-02T19:03:28.406Z,13.48
2023-01-02T19:08:35.667Z,14.73
2023-01-02T19:11:30.885Z,13.75
2023-01-02T19:13:59.107Z,14.65
2023-01-02T19:16:26.108Z,14.13
2023-01-02T19:18:56.451Z,16.60
2023-01-02T19:21:31.347Z,15.20
2023-01-02T19:24:10.050Z,15.18
2023-01-02T19:26:41.115Z,15.93
2023-01-02T19:29:11.295Z,13.73
2023-01-02T19:32:24.589Z,14.65
2023-01-02T19:35:22.711Z,14.15
2023-01-02T19:37:49.661Z,14.23
2023-01-02T19:40:22.241Z,14.25
2023-01-02T19:42:53.991Z,14.25
2023-01-02T19:45:23.424Z,15.18
2023-01-02T19:47:51.461Z,14.98
2023-01-02T19:50:24.397Z,15.18
2023-01-02T19:52:51.841Z,15.02
2023-01-02T19:55:19.247Z,14.85
2023-01-02T19:57:47.254Z,15.63
2023-01-02T20:00:16.802Z,15.70
2023-01-02T20:02:50.302Z,15.57
2023-01-02T20:05:36.894Z,14.65
2023-01-02T20:08:04.103Z,14.73
2023-01-02T20:10:30.966Z,15.43
2023-01-02T20:12:58.441Z,15.13
2023-01-02T20:15:26.968Z,13.35
2023-01-02T20:18:13.106Z,14.77
2023-01-02T20:20:40.004Z,13.75
2023-01-02T20:23:06.938Z,15.68
2023-01-02T20:25:34.012Z,14.65
2023-01-02T20:28:03.397Z,14.75
2023-01-02T20:30:30.349Z,15.07
2023-01-02T20:32:57.286Z,15.57
2023-01-02T20:35:24.237Z,15.38
2023-01-02T20:37:51.227Z,15.75
2023-01-02T20:40:18.219Z,14.20
2023-01-02T20:42:45.201Z,13.73
2023-01-02T20:45:13.121Z,14.80
2023-01-02T20:47:40.038Z,14.32
2023-01-02T20:50:07.410Z,15.30
2023-01-02T20:52:34.282Z,15.23
2023-01-02T20:55:01.202Z,14.68
2023-01-02T20:57:29.487Z,15.27
2023-01-02T20:59:56.592Z,16.77
2023-01-02T21:02:23.841Z,15.32
2023-01-02T21:04:50.799Z,17.90
2023-01-02T21:07:18.058Z,15.10
2023-01-02T21:09:45.073Z,15.10
2023-01-02T21:12:32.003Z,16.50
2023-01-02T21:14:58.919Z,15.88
2023-01-02T21:17:25.820Z,15.55
2023-01-02T21:19:52.772Z,15.32
2023-01-02T21:22:19.637Z,16.85
2023-01-02T21:24:47.130Z,16.17
2023-01-02T21:27:14.898Z,16.50
2023-01-02T21:29:42.482Z,14.93
2023-01-02T21:32:09.487Z,15.70
2023-01-02T21:34:55.073Z,16.17
2023-01-02T21:37:22.140Z,16.55
2023-01-02T21:39:49.794Z,16.80
2023-01-02T21:42:16.693Z,16.10
2023-01-02T21:44:47.239Z,15.40
2023-01-02T21:47:16.545Z,17.52
2023-01-02T21:49:44.318Z,15.63
2023-01-02T21:52:11.406Z,15.48
2023-01-02T21:57:38.649Z,15.73
2023-01-02T22:00:14.957Z,15.93
2023-01-02T22:02:43.426Z,15.60
2023-01-02T22:05:12.701Z,17.77
2023-01-02T22:07:42.599Z,17.15
2023-01-02T22:10:11.366Z,15.95
2023-01-02T22:12:40.197Z,16.15
2023-01-02T22:15:09.162Z,16.40
2023-01-02T22:17:36.099Z,16.15
2023-01-02T22:20:03.124Z,17.63
2023-01-02T22:22:30.022Z,18.63
2023-01-02T22:24:57.038Z,17.70
2023-01-02T22:27:24.079Z,16.20
2023-01-02T22:32:42.238Z,16.52
2023-01-02T22:35:09.900Z,16.83
2023-01-02T22:37:37.053Z,19.38
2023-01-02T22:40:04.315Z,18.60
2023-01-02T22:43:08.251Z,18.42
2023-01-02T22:45:48.876Z,18.20
2023-01-02T22:48:18.596Z,19.73
2023-01-02T22:50:47.084Z,19.80
2023-01-02T22:53:34.951Z,21.88
2023-01-02T22:56:06.670Z,20.02
2023-01-02T22:58:33.589Z,19.27
2023-01-02T23:03:51.881Z,18.20
2023-01-02T23:06:22.209Z,19.05
2023-01-02T23:08:51.813Z,19.08
2023-01-02T23:11:20.579Z,19.30
2023-01-02T23:13:54.534Z,17.38
2023-01-02T23:16:44.473Z,18.27
2023-01-02T23:22:00.908Z,18.00
2023-01-02T23:24:35.251Z,18.58
2023-01-02T23:27:07.121Z,18.15
2023-01-02T23:29:34.864Z,18.02
2023-01-02T23:32:05.378Z,17.30
2023-01-02T23:34:32.715Z,17.27
2023-01-02T23:37:18.535Z,17.25
2023-01-02T23:39:45.640Z,17.35
2023-01-02T23:42:12.472Z,17.65
2023-01-02T23:44:39.699Z,16.92
2023-01-02T23:47:10.246Z,19.58
2023-01-02T23:52:08.225Z,16.88
2023-01-02T23:54:35.197Z,17.55
2023-01-02T23:57:05.432Z,17.90
2023-01-02T23:59:32.525Z,16.83
